Time;durP1;ratioP1;P1;durP2;ratioP2;P2;SDS_P1;SDS_P2;PMS_P1;PMS_P2;Temp;Humidity;BMP_temperature;BMP_pressure;BME280_temperature;BME280_humidity;BME280_pressure;Samples;Min_cycle;Max_cycle;Signal;HPM_P1;HPM_P2
2023/10/28 06:05:58;;;;;;;3.80;0.20;;;;;;;14.16;100.00;98184.90;102665;1292;600362;-85
2023/10/28 06:08:26;;;;;;;0.70;0.20;;;;;;;14.62;100.00;98180.27;105641;1266;60074;-84
2023/10/28 06:10:56;;;;;;;0.20;0.20;;;;;;;14.86;100.00;98183.17;105234;1269;59305;-79
2023/10/28 06:13:24;;;;;;;3.60;0.40;;;;;;;14.99;100.00;98191.84;105191;1266;72356;-85
2023/10/28 06:15:52;;;;;;;0.30;0.30;;;;;;;15.10;100.00;98197.86;105256;1266;68366;-84
2023/10/28 06:18:20;;;;;;;1.70;0.20;;;;;;;15.22;100.00;98198.80;105679;1266;72658;-78
2023/10/28 06:20:47;;;;;;;0.40;0.30;;;;;;;15.39;100.00;98209.79;105187;1266;169431;-78
2023/10/28 06:23:15;;;;;;;0.60;0.30;;;;;;;15.53;100.00;98227.11;105282;1266;59218;-85
2023/10/28 06:25:43;;;;;;;1.70;0.20;;;;;;;15.62;100.00;98210.03;105416;1266;72277;-78
2023/10/28 06:28:10;;;;;;;0.90;0.30;;;;;;;15.67;100.00;98210.58;105519;1266;66832;-85
2023/10/28 06:30:47;;;;;;;1.60;0.30;;;;;;;15.68;99.55;98209.77;105243;1266;70634;-78
2023/10/28 06:33:15;;;;;;;0.90;0.30;;;;;;;15.73;99.81;98225.91;105300;1265;60117;-78
2023/10/28 06:35:42;;;;;;;0.20;0.20;;;;;;;15.79;99.50;98222.63;105313;1266;60376;-84
2023/10/28 06:38:10;;;;;;;1.80;0.40;;;;;;;15.84;97.94;98231.91;105636;1266;73043;-84
2023/10/28 06:40:37;;;;;;;2.60;0.30;;;;;;;15.86;96.70;98230.13;105354;1266;68596;-85
2023/10/28 06:43:05;;;;;;;1.10;0.20;;;;;;;15.89;96.04;98230.65;105534;1269;72823;-85
2023/10/28 06:45:33;;;;;;;4.30;0.30;;;;;;;15.97;95.26;98233.77;105564;1266;60064;-86
2023/10/28 06:48:01;;;;;;;0.30;0.20;;;;;;;16.05;94.99;98244.68;105701;1267;59584;-85
2023/10/28 06:50:29;;;;;;;0.40;0.20;;;;;;;16.08;95.28;98253.78;105296;1266;71796;-79
2023/10/28 06:52:56;;;;;;;2.30;0.30;;;;;;;16.12;95.49;98253.91;105535;1263;68761;-79
2023/10/28 06:55:24;;;;;;;2.40;0.30;;;;;;;16.18;94.70;98262.67;105617;1264;73015;-78
2023/10/28 06:57:52;;;;;;;2.10;0.30;;;;;;;16.21;92.63;98265.88;105181;1266;60063;-85
2023/10/28 07:00:27;;;;;;;4.60;0.30;;;;;;;16.22;92.61;98268.80;105323;1266;60072;-79
2023/10/28 07:02:55;;;;;;;0.70;0.20;;;;;;;16.19;93.00;98276.62;105480;1264;71797;-85
2023/10/28 07:05:26;;;;;;;2.20;0.50;;;;;;;16.11;94.95;98283.17;105851;1266;67569;-85
2023/10/28 07:07:54;;;;;;;3.00;0.40;;;;;;;16.03;96.43;98292.65;105337;1264;72703;-79
2023/10/28 07:10:22;;;;;;;1.60;0.50;;;;;;;15.94;97.40;98288.73;105328;1266;59720;-79
2023/10/28 07:12:50;;;;;;;0.30;0.20;;;;;;;15.88;97.12;98281.70;105253;1265;59680;-78
2023/10/28 07:15:21;;;;;;;1.20;0.40;;;;;;;15.83;96.68;98294.13;105598;1266;72994;-81
2023/10/28 07:17:49;;;;;;;7.50;0.50;;;;;;;15.76;96.27;98299.42;105837;1266;67560;-82
2023/10/28 07:20:19;;;;;;;2.90;0.40;;;;;;;15.72;94.57;98303.76;105933;1259;71591;-88
2023/10/28 07:22:47;;;;;;;1.50;0.40;;;;;;;15.68;93.06;98320.82;106167;1256;61340;-87
2023/10/28 07:25:15;;;;;;;3.60;0.30;;;;;;;15.63;92.81;98317.16;106093;1259;60109;-89
2023/10/28 07:27:42;;;;;;;0.30;0.20;;;;;;;15.62;93.10;98318.56;105906;1256;71806;-85
2023/10/28 07:30:11;;;;;;;0.70;0.30;;;;;;;15.59;94.14;98323.09;105930;1262;67330;-88
2023/10/28 07:32:40;;;;;;;0.50;0.30;;;;;;;15.59;92.98;98326.48;105947;1256;71450;-87
2023/10/28 07:35:08;;;;;;;1.10;0.30;;;;;;;15.56;94.05;98338.19;106150;1257;60091;-88
2023/10/28 07:37:36;;;;;;;4.40;0.50;;;;;;;15.48;95.11;98339.00;106000;1257;60351;-79
2023/10/28 07:40:04;;;;;;;4.70;0.40;;;;;;;15.42;95.41;98344.61;105778;1262;75619;-80
2023/10/28 07:42:34;;;;;;;2.20;0.30;;;;;;;15.34;95.89;98349.02;106016;1261;67351;-79
2023/10/28 07:45:02;;;;;;;1.80;0.40;;;;;;;15.29;96.19;98355.04;106633;1260;72438;-80
2023/10/28 07:47:31;;;;;;;5.30;0.60;;;;;;;15.27;96.31;98354.54;106066;1258;59225;-86
2023/10/28 07:49:59;;;;;;;0.70;0.30;;;;;;;15.27;95.27;98352.48;105837;1263;60072;-86
2023/10/28 07:52:26;;;;;;;1.90;0.40;;;;;;;15.25;95.72;98364.86;106159;1256;73062;-80
2023/10/28 07:54:54;;;;;;;0.40;0.30;;;;;;;15.23;95.63;98369.05;106246;1256;68538;-86
2023/10/28 07:57:22;;;;;;;1.40;0.50;;;;;;;15.20;96.57;98364.62;105957;1262;71869;-80
2023/10/28 07:59:52;;;;;;;0.30;0.30;;;;;;;15.17;96.77;98371.13;105848;1263;60172;-83
2023/10/28 08:02:20;;;;;;;3.30;0.60;;;;;;;15.19;96.25;98377.00;105895;1256;60374;-80
2023/10/28 08:04:47;;;;;;;2.30;1.00;;;;;;;15.22;96.06;98390.27;106001;1257;73547;-81
2023/10/28 08:07:15;;;;;;;2.10;0.50;;;;;;;15.22;96.17;98390.02;106223;1262;67120;-80
2023/10/28 08:09:44;;;;;;;3.00;0.70;;;;;;;15.24;96.20;98396.13;106289;1261;73181;-80
2023/10/28 08:12:13;;;;;;;1.90;1.00;;;;;;;15.25;95.85;98400.71;106140;1259;60378;-87
2023/10/28 08:14:43;;;;;;;0.50;0.50;;;;;;;15.27;97.45;98401.94;106573;1261;59732;-81
2023/10/28 08:17:10;;;;;;;2.60;0.50;;;;;;;15.34;95.86;98414.11;106062;1257;73212;-89
2023/10/28 08:19:38;;;;;;;2.50;0.40;;;;;;;15.37;94.75;98405.05;106083;1257;68916;-81
2023/10/28 08:22:06;;;;;;;4.40;0.60;;;;;;;15.37;94.37;98410.87;106164;1256;72868;-81
2023/10/28 08:24:33;;;;;;;2.00;0.60;;;;;;;15.41;95.00;98424.39;105987;1256;60530;-81
2023/10/28 08:27:01;;;;;;;3.60;0.70;;;;;;;15.46;93.32;98430.72;106030;1262;60018;-88
2023/10/28 08:29:28;;;;;;;2.50;1.20;;;;;;;15.46;93.15;98441.19;106065;1256;71110;-81
2023/10/28 08:31:57;;;;;;;2.40;0.80;;;;;;;15.45;93.12;98429.70;106073;1256;68379;-80
2023/10/28 08:34:25;;;;;;;1.40;0.60;;;;;;;15.46;92.54;98442.05;105995;1262;73139;-87
2023/10/28 08:36:52;;;;;;;1.70;0.50;;;;;;;15.44;92.49;98458.21;106743;1259;59503;-80
2023/10/28 08:39:20;;;;;;;0.90;0.50;;;;;;;15.41;93.74;98463.71;105933;1256;59544;-80
2023/10/28 08:41:48;;;;;;;1.10;0.60;;;;;;;15.41;93.80;98459.95;106144;1256;71868;-87
2023/10/28 08:44:17;;;;;;;3.00;0.50;;;;;;;15.40;92.56;98465.34;106130;1262;68397;-87
2023/10/28 08:46:45;;;;;;;7.30;0.80;;;;;;;15.35;90.61;98464.61;105980;1262;72653;-88
2023/10/28 08:49:13;;;;;;;2.40;0.40;;;;;;;15.27;90.62;98478.03;106088;1260;60067;-81
2023/10/28 08:51:41;;;;;;;0.70;0.60;;;;;;;15.23;91.97;98485.89;106240;1253;59724;-81
2023/10/28 08:54:10;;;;;;;0.90;0.70;;;;;;;15.25;92.56;98494.10;106138;1259;71110;-82
2023/10/28 08:56:40;;;;;;;1.80;0.90;;;;;;;15.30;92.00;98494.21;106099;1258;68305;-80
2023/10/28 08:59:09;;;;;;;0.60;0.50;;;;;;;15.34;92.05;98497.13;106180;1253;71061;-89
2023/10/28 09:01:36;;;;;;;0.50;0.50;;;;;;;15.35;92.36;98500.38;106131;1260;59683;-81
2023/10/28 09:04:07;;;;;;;2.00;0.60;;;;;;;15.36;92.41;98506.14;106289;1253;60187;-90
2023/10/28 09:06:35;;;;;;;0.50;0.50;;;;;;;15.34;92.53;98517.73;106352;1254;72877;-81
2023/10/28 09:09:09;;;;;;;1.80;0.60;;;;;;;15.30;94.37;98523.84;106307;1257;67127;-90
2023/10/28 09:11:37;;;;;;;4.60;0.70;;;;;;;15.29;94.00;98515.49;106591;1253;72614;-89
2023/10/28 09:14:07;;;;;;;1.00;0.50;;;;;;;15.32;94.54;98528.30;106376;1253;60890;-89
2023/10/28 09:16:35;;;;;;;1.50;0.60;;;;;;;15.35;94.08;98532.38;106615;1257;60008;-90
2023/10/28 09:19:03;;;;;;;0.60;0.60;;;;;;;15.34;94.25;98536.36;106337;1253;73006;-90
2023/10/28 09:21:31;;;;;;;1.90;0.60;;;;;;;15.31;94.63;98535.75;106251;1253;67142;-89
2023/10/28 09:24:02;;;;;;;5.10;0.80;;;;;;;15.32;95.83;98544.64;106587;1259;71394;-89
2023/10/28 09:26:30;;;;;;;0.70;0.60;;;;;;;15.35;97.17;98563.52;106567;1257;60118;-90
2023/10/28 09:28:58;;;;;;;1.70;0.60;;;;;;;15.36;97.73;98569.81;106231;1253;60006;-89
2023/10/28 09:31:26;;;;;;;1.00;0.70;;;;;;;15.35;98.40;98575.55;106742;1258;73098;-90
2023/10/28 09:33:55;;;;;;;4.50;0.80;;;;;;;15.36;99.14;98572.98;106344;1253;66449;-89
2023/10/28 09:36:23;;;;;;;1.60;0.60;;;;;;;15.35;99.52;98590.80;106313;1254;72685;-90
2023/10/28 09:38:53;;;;;;;1.30;0.80;;;;;;;15.36;99.97;98602.28;106299;1256;59621;-91
2023/10/28 09:41:21;;;;;;;1.00;0.90;;;;;;;15.38;100.00;98603.20;106642;1253;59612;-90
2023/10/28 09:43:48;;;;;;;1.00;0.50;;;;;;;15.39;99.95;98605.91;106354;1253;71750;-91
2023/10/28 09:46:19;;;;;;;0.60;0.60;;;;;;;15.42;100.00;98611.31;106817;1259;68475;-82
2023/10/28 09:48:48;;;;;;;1.10;0.70;;;;;;;15.45;100.00;98623.91;107184;1257;72124;-82
2023/10/28 09:51:18;;;;;;;1.70;1.10;;;;;;;15.54;100.00;98623.56;106509;1257;60557;-81
2023/10/28 09:53:49;;;;;;;0.80;0.80;;;;;;;15.65;99.90;98627.14;106555;1258;59982;-81
2023/10/28 09:56:16;;;;;;;1.30;1.10;;;;;;;15.73;98.97;98631.91;106306;1259;73026;-90
2023/10/28 09:59:07;;;;;;;2.50;0.80;;;;;;;15.75;99.59;98646.67;106424;1253;68409;-89
2023/10/28 10:01:40;;;;;;;6.20;1.10;;;;;;;15.69;98.96;98652.66;106487;1259;71812;-89
2023/10/28 10:04:23;;;;;;;3.00;0.70;;;;;;;15.57;98.35;98667.92;106032;1261;59699;-81
2023/10/28 10:06:51;;;;;;;0.90;0.80;;;;;;;15.43;98.91;98667.96;106263;1253;59563;-80
2023/10/28 10:09:19;;;;;;;1.90;0.60;;;;;;;15.32;99.93;98680.59;106026;1253;71821;-81
2023/10/28 10:11:49;;;;;;;1.40;0.90;;;;;;;15.27;100.00;98674.40;106232;1261;67146;-81
2023/10/28 10:14:18;;;;;;;1.00;0.80;;;;;;;15.31;100.00;98676.73;106300;1259;72712;-88
2023/10/28 10:16:53;;;;;;;5.20;1.10;;;;;;;15.32;100.00;98686.17;106312;1254;60530;-91
2023/10/28 10:19:30;;;;;;;0.70;0.70;;;;;;;15.32;100.00;98691.52;106358;1253;60420;-80
2023/10/28 10:21:58;;;;;;;1.70;0.80;;;;;;;15.29;99.37;98693.33;106352;1253;73915;-89
2023/10/28 10:24:27;;;;;;;1.10;0.70;;;;;;;15.24;99.53;98704.11;106357;1259;67445;-82
2023/10/28 10:26:57;;;;;;;2.10;0.60;;;;;;;15.18;99.78;98706.48;106155;1253;71705;-81
2023/10/28 10:29:29;;;;;;;2.50;0.90;;;;;;;15.18;100.00;98722.67;106579;1259;60524;-89
2023/10/28 10:31:57;;;;;;;3.50;1.10;;;;;;;15.16;100.00;98729.55;106312;1259;60343;-89
2023/10/28 10:34:45;;;;;;;1.00;0.90;;;;;;;15.15;100.00;98732.66;106409;1257;72671;-89
2023/10/28 10:37:25;;;;;;;0.90;0.80;;;;;;;15.13;100.00;98737.14;106306;1258;68650;-89
2023/10/28 10:39:55;;;;;;;1.50;0.60;;;;;;;15.12;99.99;98742.55;106628;1256;70650;-89
2023/10/28 10:42:24;;;;;;;1.30;0.90;;;;;;;15.13;100.00;98742.80;106401;1256;60560;-88
2023/10/28 10:44:52;;;;;;;1.00;0.80;;;;;;;15.14;100.00;98751.09;106441;1259;60590;-89
2023/10/28 10:47:21;;;;;;;1.90;1.10;;;;;;;15.18;99.57;98749.45;106553;1257;74288;-90
2023/10/28 10:49:49;;;;;;;0.90;0.80;;;;;;;15.21;99.28;98757.58;106396;1260;68392;-91
2023/10/28 10:52:18;;;;;;;1.40;1.10;;;;;;;15.23;98.88;98755.77;106405;1257;72674;-90
2023/10/28 10:54:46;;;;;;;1.00;0.80;;;;;;;15.23;98.24;98758.11;106290;1253;60508;-91
2023/10/28 10:57:14;;;;;;;3.40;0.90;;;;;;;15.28;99.11;98765.31;106388;1254;60453;-87
2023/10/28 10:59:42;;;;;;;3.20;2.20;;;;;;;15.37;98.78;98765.17;106503;1257;72550;-82
2023/10/28 11:02:10;;;;;;;6.10;2.90;;;;;;;15.44;98.32;98766.62;106388;1260;68727;-85
2023/10/28 11:04:39;;;;;;;4.40;2.20;;;;;;;15.50;98.02;98768.43;106201;1259;72873;-82
2023/10/28 11:07:08;;;;;;;1.20;1.10;;;;;;;15.61;97.10;98773.41;106307;1259;60491;-82
2023/10/28 11:09:36;;;;;;;1.20;0.90;;;;;;;15.71;96.18;98784.87;106223;1258;60545;-82
2023/10/28 11:12:04;;;;;;;2.70;1.00;;;;;;;15.76;94.08;98782.34;106366;1255;72526;-82
2023/10/28 11:14:32;;;;;;;1.10;0.80;;;;;;;15.75;90.43;98787.20;106380;1253;67623;-82
2023/10/28 11:16:59;;;;;;;2.10;0.90;;;;;;;15.67;90.74;98796.71;106299;1254;71135;-85
2023/10/28 11:19:27;;;;;;;5.40;1.00;;;;;;;15.61;92.93;98804.09;106363;1259;60640;-82
2023/10/28 11:21:55;;;;;;;3.80;0.90;;;;;;;15.62;93.21;98807.73;106242;1259;60476;-85
2023/10/28 11:24:23;;;;;;;2.70;0.90;;;;;;;15.63;91.72;98810.60;106382;1257;73807;-81
2023/10/28 11:26:50;;;;;;;1.10;0.80;;;;;;;15.63;92.00;98818.85;106325;1254;68828;-86
2023/10/28 11:29:18;;;;;;;1.30;0.80;;;;;;;15.59;90.58;98822.87;106632;1257;71283;-80
2023/10/28 11:31:46;;;;;;;1.80;0.70;;;;;;;15.54;91.08;98829.05;106293;1260;60357;-84
2023/10/28 11:34:16;;;;;;;1.30;1.00;;;;;;;15.47;91.96;98845.58;106307;1258;60336;-85
2023/10/28 11:36:44;;;;;;;0.80;0.80;;;;;;;15.44;93.41;98839.59;106403;1258;72882;-80
2023/10/28 11:39:13;;;;;;;1.50;1.10;;;;;;;15.46;93.86;98857.56;106516;1259;67216;-85
2023/10/28 11:41:43;;;;;;;1.10;1.00;;;;;;;15.48;93.83;98856.91;106342;1259;72416;-80
2023/10/28 11:44:11;;;;;;;3.50;1.10;;;;;;;15.49;91.94;98875.67;106325;1257;60531;-80
2023/10/28 11:46:39;;;;;;;2.90;1.20;;;;;;;15.48;90.28;98874.48;106112;1255;60467;-86
2023/10/28 11:49:08;;;;;;;1.50;1.10;;;;;;;15.48;91.09;98892.31;106834;1259;73818;-85
2023/10/28 11:51:35;;;;;;;3.90;1.10;;;;;;;15.47;90.83;98885.68;106355;1253;66433;-80
2023/10/28 11:54:03;;;;;;;1.60;0.90;;;;;;;15.45;91.46;98887.20;106374;1257;72687;-80
2023/10/28 11:56:34;;;;;;;1.20;0.90;;;;;;;15.45;91.54;98896.66;106398;1254;60408;-80
2023/10/28 11:59:02;;;;;;;2.80;0.90;;;;;;;15.44;88.91;98901.40;106536;1253;60010;-85
2023/10/28 12:01:32;;;;;;;2.70;0.60;;;;;;;15.37;88.55;98904.58;106337;1256;73863;-83
2023/10/28 12:04:02;;;;;;;4.70;1.20;;;;;;;15.27;89.23;98915.08;106264;1260;68831;-82
2023/10/28 12:06:31;;;;;;;1.40;0.80;;;;;;;15.22;89.89;98923.97;106478;1253;71747;-85
2023/10/28 12:08:59;;;;;;;1.20;0.80;;;;;;;15.19;89.81;98932.59;106350;1259;60414;-85
2023/10/28 12:11:27;;;;;;;4.20;1.10;;;;;;;15.16;88.88;98943.27;106305;1253;60157;-82
2023/10/28 12:13:58;;;;;;;1.70;0.80;;;;;;;15.14;87.60;98957.42;106371;1253;72981;-81
2023/10/28 12:16:29;;;;;;;1.70;0.80;;;;;;;15.13;87.19;98956.08;106736;1254;67610;-82
2023/10/28 12:18:57;;;;;;;2.80;1.20;;;;;;;15.10;86.04;98965.06;106370;1254;73685;-82
2023/10/28 12:21:25;;;;;;;4.20;0.90;;;;;;;15.06;86.67;98972.76;106320;1257;60829;-85
2023/10/28 12:23:53;;;;;;;1.40;0.90;;;;;;;15.05;87.60;98979.55;106345;1254;60696;-85
2023/10/28 12:26:20;;;;;;;5.60;1.00;;;;;;;15.04;87.55;98992.27;106300;1252;73932;-83
2023/10/28 12:28:48;;;;;;;1.20;0.80;;;;;;;15.03;86.92;98995.48;106362;1257;67842;-83
2023/10/28 12:31:16;;;;;;;2.50;0.90;;;;;;;15.02;87.77;98998.95;106448;1254;72344;-83
2023/10/28 12:33:44;;;;;;;2.90;1.00;;;;;;;15.02;88.54;99009.88;106388;1254;60342;-83
2023/10/28 12:36:11;;;;;;;1.40;0.90;;;;;;;15.02;89.65;99017.74;106700;1257;60821;-85
2023/10/28 12:38:39;;;;;;;1.80;0.90;;;;;;;15.00;90.47;99015.64;106269;1260;74371;-86
2023/10/28 12:41:07;;;;;;;5.80;1.20;;;;;;;14.99;89.15;99017.41;106422;1254;68850;-86
2023/10/28 12:43:35;;;;;;;2.70;0.80;;;;;;;14.99;89.80;99022.49;106227;1254;72657;-83
2023/10/28 12:46:04;;;;;;;1.20;0.90;;;;;;;14.98;90.95;99026.58;106397;1253;61014;-83
2023/10/28 12:48:32;;;;;;;1.20;0.90;;;;;;;14.97;91.36;99039.75;106442;1254;60619;-86
2023/10/28 12:51:00;;;;;;;3.30;0.80;;;;;;;14.97;91.50;99041.00;106380;1259;73772;-86
2023/10/28 12:53:29;;;;;;;1.90;0.90;;;;;;;14.95;91.78;99049.27;106388;1258;67841;-86
2023/10/28 12:55:56;;;;;;;4.00;1.10;;;;;;;14.92;91.63;99058.82;106508;1257;73152;-86
2023/10/28 12:58:26;;;;;;;5.10;1.20;;;;;;;14.91;90.92;99060.52;106350;1255;60565;-86
2023/10/28 13:00:56;;;;;;;2.20;0.90;;;;;;;14.91;88.85;99065.70;106354;1260;60434;-86
2023/10/28 13:03:25;;;;;;;0.80;0.80;;;;;;;14.95;89.04;99078.02;106496;1257;73809;-81
2023/10/28 13:05:53;;;;;;;2.40;0.80;;;;;;;14.97;89.29;99087.68;106297;1254;66570;-86
2023/10/28 13:08:21;;;;;;;2.00;0.60;;;;;;;14.98;88.54;99092.98;106317;1260;72855;-85
2023/10/28 13:10:49;;;;;;;1.30;0.90;;;;;;;14.97;88.13;99097.42;106404;1254;60608;-86
2023/10/28 13:13:22;;;;;;;1.30;0.80;;;;;;;14.95;87.94;99104.19;106545;1254;60408;-83
2023/10/28 13:15:49;;;;;;;1.00;0.80;;;;;;;14.91;87.83;99115.30;106286;1253;73788;-83
2023/10/28 13:18:17;;;;;;;0.80;0.80;;;;;;;14.89;86.21;99118.98;106367;1259;67094;-83
2023/10/28 13:20:44;;;;;;;2.20;0.60;;;;;;;14.87;86.51;99137.77;106287;1258;71414;-82
2023/10/28 13:23:12;;;;;;;1.50;1.10;;;;;;;14.84;87.03;99138.95;106270;1258;60540;-83
2023/10/28 13:25:40;;;;;;;3.90;0.80;;;;;;;14.81;85.82;99137.34;106674;1257;60567;-86
2023/10/28 13:28:09;;;;;;;3.20;0.90;;;;;;;14.77;85.62;99144.55;106308;1254;72589;-82
2023/10/28 13:30:38;;;;;;;1.00;0.90;;;;;;;14.74;86.94;99146.21;106242;1259;67127;-85
2023/10/28 13:33:06;;;;;;;1.90;0.80;;;;;;;14.70;87.51;99152.10;106405;1254;72692;-87
2023/10/28 13:35:34;;;;;;;0.90;0.80;;;;;;;14.68;86.19;99158.47;106300;1253;60542;-82
2023/10/28 13:38:02;;;;;;;18.20;10.00;;;;;;;14.66;86.26;99157.70;106408;1257;60352;-83
2023/10/28 13:40:30;;;;;;;1.40;1.10;;;;;;;14.66;85.50;99163.59;106352;1254;72546;-82
2023/10/28 13:42:58;;;;;;;1.60;1.00;;;;;;;14.63;86.54;99165.85;106408;1255;67126;-82
2023/10/28 13:45:25;;;;;;;2.10;1.50;;;;;;;14.55;86.84;99170.45;106087;1261;72715;-86
2023/10/28 13:47:54;;;;;;;4.10;0.80;;;;;;;14.50;87.40;99178.06;106290;1254;60332;-86
2023/10/28 13:50:22;;;;;;;1.00;0.90;;;;;;;14.45;88.19;99185.73;106298;1254;60561;-82
2023/10/28 13:52:50;;;;;;;1.10;0.80;;;;;;;14.42;88.45;99185.79;106418;1257;73820;-86
2023/10/28 13:55:18;;;;;;;1.20;0.90;;;;;;;14.42;89.30;99200.54;106169;1254;69684;-85
2023/10/28 13:57:46;;;;;;;1.60;0.90;;;;;;;14.39;89.88;99208.70;106315;1254;72797;-82
2023/10/28 14:00:14;;;;;;;0.90;0.90;;;;;;;14.34;90.83;99213.29;106273;1254;60471;-81
2023/10/28 14:02:42;;;;;;;1.50;1.10;;;;;;;14.30;91.41;99220.05;106242;1258;60424;-87
2023/10/28 14:05:11;;;;;;;0.80;0.80;;;;;;;14.25;92.10;99229.10;106439;1260;71796;-86
2023/10/28 14:07:39;;;;;;;2.60;1.00;;;;;;;14.20;92.59;99230.71;106438;1254;68834;-82
2023/10/28 14:10:07;;;;;;;2.60;0.80;;;;;;;14.15;93.09;99233.47;106255;1254;72412;-82
2023/10/28 14:12:40;;;;;;;2.60;1.00;;;;;;;14.12;93.42;99235.02;106340;1259;60377;-82
2023/10/28 14:15:10;;;;;;;2.00;1.00;;;;;;;14.10;93.65;99247.26;106328;1254;60561;-86
2023/10/28 14:17:39;;;;;;;1.10;0.90;;;;;;;14.09;94.39;99259.02;106343;1254;73923;-86
2023/10/28 14:20:10;;;;;;;1.20;1.00;;;;;;;14.09;94.82;99266.94;106407;1256;68833;-86
2023/10/28 14:22:38;;;;;;;1.40;1.20;;;;;;;14.09;95.57;99277.29;106366;1261;71875;-82
2023/10/28 14:25:09;;;;;;;2.70;1.00;;;;;;;14.06;96.60;99283.64;106310;1254;60483;-82
2023/10/28 14:27:37;;;;;;;1.30;0.90;;;;;;;14.03;97.08;99289.15;106239;1254;60867;-86
2023/10/28 14:30:08;;;;;;;1.30;1.00;;;;;;;13.99;97.58;99285.63;106333;1260;73780;-82
2023/10/28 14:32:35;;;;;;;2.90;1.20;;;;;;;13.97;97.89;99295.73;106461;1258;68309;-86
2023/10/28 14:35:05;;;;;;;1.60;1.20;;;;;;;13.93;98.70;99297.91;106333;1253;72745;-82
2023/10/28 14:37:33;;;;;;;2.40;1.20;;;;;;;13.92;99.24;99310.64;106327;1259;60475;-86
2023/10/28 14:40:00;;;;;;;1.70;1.30;;;;;;;13.91;99.50;99308.43;106322;1254;60646;-86
2023/10/28 14:42:28;;;;;;;1.90;1.20;;;;;;;13.91;98.13;99316.34;106389;1254;72164;-85
2023/10/28 14:44:56;;;;;;;2.50;1.20;;;;;;;13.93;97.93;99321.20;106433;1253;68391;-86
2023/10/28 14:47:23;;;;;;;1.90;1.00;;;;;;;13.94;97.18;99317.91;106286;1254;71774;-82
2023/10/28 14:49:51;;;;;;;1.50;0.90;;;;;;;13.97;96.11;99329.55;106276;1254;60579;-82
2023/10/28 14:52:19;;;;;;;2.20;1.00;;;;;;;13.99;96.00;99339.93;106480;1254;60421;-86
2023/10/28 14:54:46;;;;;;;1.30;1.00;;;;;;;13.98;95.43;99336.24;106322;1257;75912;-81
2023/10/28 14:57:14;;;;;;;4.20;1.10;;;;;;;13.98;95.22;99337.11;106281;1254;68549;-88
2023/10/28 14:59:42;;;;;;;2.20;1.20;;;;;;;13.98;94.55;99342.99;106388;1254;72630;-87
2023/10/28 15:02:17;;;;;;;1.20;0.90;;;;;;;13.99;93.05;99352.95;106396;1257;60543;-88
2023/10/28 15:04:46;;;;;;;1.80;1.20;;;;;;;14.03;92.16;99355.85;106055;1254;60971;-82
2023/10/28 15:07:20;;;;;;;1.20;1.00;;;;;;;14.05;92.05;99353.34;106278;1254;72244;-82
2023/10/28 15:09:48;;;;;;;1.50;0.90;;;;;;;14.04;92.35;99359.03;106218;1254;68890;-81
2023/10/28 15:12:16;;;;;;;1.70;1.00;;;;;;;14.01;92.70;99360.17;106239;1254;71417;-90
2023/10/28 15:14:44;;;;;;;2.70;1.40;;;;;;;14.01;92.51;99368.55;106390;1260;60561;-82
2023/10/28 15:17:12;;;;;;;1.90;1.60;;;;;;;14.01;92.41;99372.56;106158;1260;60421;-81
2023/10/28 15:19:40;;;;;;;1.60;1.30;;;;;;;14.03;93.33;99376.49;106389;1254;72930;-87
2023/10/28 15:22:07;;;;;;;1.80;1.50;;;;;;;14.03;93.79;99383.00;106438;1253;69508;-81
2023/10/28 15:24:35;;;;;;;2.20;1.30;;;;;;;14.01;94.46;99386.74;106510;1254;71494;-87
2023/10/28 15:27:04;;;;;;;3.20;1.40;;;;;;;14.00;95.11;99384.61;106428;1254;60415;-82
2023/10/28 15:29:32;;;;;;;3.70;1.20;;;;;;;13.98;95.59;99391.98;106446;1254;60547;-81
2023/10/28 15:32:00;;;;;;;1.60;1.40;;;;;;;13.95;96.28;99396.64;106781;1257;73940;-87
2023/10/28 15:34:31;;;;;;;1.40;1.20;;;;;;;13.91;96.94;99395.30;106783;1257;68898;-82
2023/10/28 15:36:59;;;;;;;1.60;1.30;;;;;;;13.91;97.39;99406.73;106255;1259;73110;-81
2023/10/28 15:39:26;;;;;;;2.00;1.40;;;;;;;13.95;97.29;99413.83;106308;1253;60462;-81
2023/10/28 15:41:54;;;;;;;3.50;1.50;;;;;;;13.97;97.60;99416.35;106368;1254;60084;-82
2023/10/28 15:44:22;;;;;;;2.50;1.40;;;;;;;13.99;97.28;99421.45;106472;1254;74338;-82
2023/10/28 15:46:50;;;;;;;2.20;1.50;;;;;;;14.01;97.73;99435.44;106403;1254;68080;-88
2023/10/28 15:49:17;;;;;;;1.80;1.30;;;;;;;14.03;98.31;99443.41;106820;1258;70418;-87
2023/10/28 15:51:45;;;;;;;1.60;1.40;;;;;;;14.05;98.85;99448.78;106135;1253;60546;-81
2023/10/28 15:54:12;;;;;;;2.20;2.00;;;;;;;14.03;99.15;99453.40;106359;1254;60521;-88
2023/10/28 15:56:40;;;;;;;1.70;1.50;;;;;;;13.98;99.57;99455.67;106496;1254;73831;-87
2023/10/28 15:59:08;;;;;;;3.00;1.70;;;;;;;13.91;100.00;99453.98;106242;1258;67231;-87
2023/10/28 16:01:36;;;;;;;1.70;1.30;;;;;;;13.86;100.00;99464.73;106227;1254;72923;-87
2023/10/28 16:04:04;;;;;;;1.80;1.20;;;;;;;13.83;100.00;99467.48;106455;1253;62334;-81
2023/10/28 16:06:32;;;;;;;2.40;1.50;;;;;;;13.81;100.00;99472.49;106373;1254;60451;-81
2023/10/28 16:09:00;;;;;;;1.40;1.00;;;;;;;13.79;100.00;99481.14;106270;1254;73889;-82
2023/10/28 16:11:28;;;;;;;1.60;1.40;;;;;;;13.79;100.00;99484.25;106262;1253;68424;-82
2023/10/28 16:13:56;;;;;;;3.20;1.30;;;;;;;13.77;100.00;99488.67;106538;1254;72685;-88
2023/10/28 16:16:23;;;;;;;1.80;1.20;;;;;;;13.81;100.00;99501.59;106359;1254;60341;-88
2023/10/28 16:18:51;;;;;;;3.00;1.40;;;;;;;13.83;100.00;99498.77;106445;1254;60431;-88
2023/10/28 16:21:18;;;;;;;2.00;1.30;;;;;;;13.81;100.00;99504.83;106449;1254;73018;-88
2023/10/28 16:23:48;;;;;;;2.60;1.40;;;;;;;13.75;100.00;99516.13;106461;1258;67689;-81
2023/10/28 16:26:16;;;;;;;4.60;1.50;;;;;;;13.70;100.00;99518.71;106325;1253;72456;-82
2023/10/28 16:28:44;;;;;;;3.60;1.80;;;;;;;13.64;100.00;99528.25;106258;1257;60978;-82
2023/10/28 16:31:13;;;;;;;1.30;1.20;;;;;;;13.62;100.00;99534.45;106333;1253;60533;-82
2023/10/28 16:33:41;;;;;;;3.00;1.80;;;;;;;13.58;100.00;99542.86;106250;1254;73848;-88
2023/10/28 16:36:09;;;;;;;1.60;1.40;;;;;;;13.53;100.00;99548.67;106386;1255;68517;-87
2023/10/28 16:38:36;;;;;;;2.30;1.50;;;;;;;13.49;100.00;99553.52;106369;1254;72497;-88
2023/10/28 16:41:04;;;;;;;1.60;1.20;;;;;;;13.49;100.00;99561.04;106439;1256;60542;-86
2023/10/28 16:43:32;;;;;;;3.00;1.50;;;;;;;13.51;100.00;99568.27;106291;1253;60625;-81
2023/10/28 16:46:00;;;;;;;2.30;1.60;;;;;;;13.54;100.00;99573.67;106401;1253;73845;-81
2023/10/28 16:48:29;;;;;;;3.20;1.70;;;;;;;13.59;100.00;99575.06;106277;1255;68841;-81
2023/10/28 16:51:00;;;;;;;1.70;1.50;;;;;;;13.61;100.00;99579.16;106371;1253;71509;-81
2023/10/28 16:53:27;;;;;;;2.90;1.50;;;;;;;13.61;100.00;99575.02;106508;1260;60480;-87
2023/10/28 16:56:06;;;;;;;1.60;1.30;;;;;;;13.61;100.00;99575.95;106325;1254;60943;-87
2023/10/28 16:58:35;;;;;;;1.80;1.30;;;;;;;13.60;100.00;99581.85;106381;1253;75067;-88
2023/10/28 17:01:03;;;;;;;1.90;1.20;;;;;;;13.61;100.00;99584.83;106299;1253;66394;-88
2023/10/28 17:03:32;;;;;;;3.20;1.40;;;;;;;13.61;100.00;99583.95;106382;1254;72505;-81
2023/10/28 17:06:01;;;;;;;5.00;1.90;;;;;;;13.62;100.00;99585.66;106504;1254;60441;-82
2023/10/28 17:08:29;;;;;;;2.70;1.70;;;;;;;13.63;100.00;99589.77;106188;1254;60466;-82
2023/10/28 17:11:00;;;;;;;2.70;1.90;;;;;;;13.64;100.00;99594.84;106193;1253;73918;-82
2023/10/28 17:13:27;;;;;;;3.10;1.90;;;;;;;13.63;100.00;99591.20;106112;1254;67113;-89
2023/10/28 17:15:56;;;;;;;3.30;1.90;;;;;;;13.64;100.00;99594.03;106266;1254;73616;-81
2023/10/28 17:18:24;;;;;;;7.10;2.20;;;;;;;13.64;100.00;99591.06;106324;1253;60483;-81
2023/10/28 17:20:52;;;;;;;3.20;2.10;;;;;;;13.65;100.00;99592.67;106338;1253;60281;-81
2023/10/28 17:23:20;;;;;;;3.30;2.20;;;;;;;13.63;100.00;99597.38;106343;1253;73978;-87
2023/10/28 17:25:47;;;;;;;2.50;1.90;;;;;;;13.59;100.00;99602.84;106376;1257;67250;-82
2023/10/28 17:28:15;;;;;;;2.80;2.10;;;;;;;13.55;100.00;99607.52;106140;1260;72783;-82
2023/10/28 17:30:44;;;;;;;2.60;2.20;;;;;;;13.51;100.00;99609.11;106388;1254;60440;-82
2023/10/28 17:33:12;;;;;;;3.20;2.20;;;;;;;13.46;100.00;99616.46;106402;1259;60496;-88
2023/10/28 17:35:42;;;;;;;5.70;2.50;;;;;;;13.39;100.00;99620.16;106354;1256;73805;-89